createdAt,value
2022-08-24T00:00:35.112Z,5.30
2022-08-24T00:03:02.502Z,5.10
2022-08-24T00:05:30.020Z,5.22
2022-08-24T00:07:56.978Z,4.65
2022-08-24T00:10:24.011Z,4.68
2022-08-24T00:12:51.217Z,4.85
2022-08-24T00:15:18.430Z,4.65
2022-08-24T00:17:45.855Z,4.65
2022-08-24T00:20:13.309Z,4.40
2022-08-24T00:22:41.103Z,3.65
2022-08-24T00:25:09.888Z,4.13
2022-08-24T00:27:37.064Z,4.00
2022-08-24T00:30:06.441Z,4.30
2022-08-24T00:32:34.044Z,3.55
2022-08-24T00:35:01.165Z,3.80
2022-08-24T00:37:29.040Z,3.85
2022-08-24T00:39:56.443Z,3.42
2022-08-24T00:42:23.784Z,3.38
2022-08-24T00:44:50.908Z,3.90
2022-08-24T00:47:24.097Z,3.90
2022-08-24T00:49:54.562Z,3.30
2022-08-24T00:52:21.826Z,4.40
2022-08-24T00:54:53.257Z,3.60
2022-08-24T00:57:23.374Z,3.55
2022-08-24T00:59:56.004Z,3.90
2022-08-24T01:02:26.710Z,3.47
2022-08-24T01:04:58.367Z,3.70
2022-08-24T01:07:26.724Z,3.90
2022-08-24T01:09:57.281Z,3.45
2022-08-24T01:12:25.315Z,3.70
2022-08-24T01:14:52.483Z,3.60
2022-08-24T01:17:39.162Z,3.63
2022-08-24T01:20:08.194Z,3.40
2022-08-24T01:22:54.378Z,4.03
2022-08-24T01:25:23.925Z,3.75
2022-08-24T01:27:51.298Z,3.67
2022-08-24T01:30:21.953Z,3.53
2022-08-24T01:33:03.809Z,3.85
2022-08-24T01:35:31.423Z,3.50
2022-08-24T01:38:01.469Z,3.50
2022-08-24T01:40:34.637Z,4.07
2022-08-24T01:43:02.238Z,4.28
2022-08-24T01:45:29.173Z,3.90
2022-08-24T01:47:56.301Z,3.47
2022-08-24T01:50:23.049Z,3.90
2022-08-24T01:53:06.104Z,3.58
2022-08-24T01:55:33.715Z,3.72
2022-08-24T01:58:01.365Z,4.15
2022-08-24T02:00:28.503Z,3.70
2022-08-24T02:02:57.148Z,4.00
2022-08-24T02:05:24.597Z,4.07
2022-08-24T02:07:52.002Z,3.75
2022-08-24T02:10:19.477Z,3.78
2022-08-24T02:12:57.710Z,3.83
2022-08-24T02:15:27.384Z,3.40
2022-08-24T02:17:55.086Z,3.00
2022-08-24T02:20:22.283Z,3.45
2022-08-24T02:22:52.984Z,4.18
2022-08-24T02:25:21.023Z,3.30
2022-08-24T02:27:48.242Z,3.70
2022-08-24T02:30:15.882Z,3.88
2022-08-24T02:32:42.999Z,3.80
2022-08-24T02:35:10.366Z,3.50
2022-08-24T02:37:43.210Z,4.35
2022-08-24T02:40:12.552Z,3.47
2022-08-24T02:42:39.677Z,3.60
2022-08-24T02:45:07.059Z,3.40
2022-08-24T02:47:38.911Z,3.40
2022-08-24T02:50:07.733Z,3.40
2022-08-24T02:52:36.163Z,3.65
2022-08-24T02:55:03.357Z,3.53
2022-08-24T02:57:30.462Z,3.30
2022-08-24T02:59:57.526Z,3.63
2022-08-24T03:02:24.668Z,3.72
2022-08-24T03:04:51.856Z,3.92
2022-08-24T03:07:18.981Z,3.83
2022-08-24T03:09:45.809Z,3.70
2022-08-24T03:12:12.937Z,3.97
2022-08-24T03:14:40.760Z,3.90
2022-08-24T03:17:07.992Z,4.20
2022-08-24T03:19:34.733Z,3.75
2022-08-24T03:22:01.940Z,3.35
2022-08-24T03:24:28.774Z,4.00
2022-08-24T03:26:56.088Z,4.00
2022-08-24T03:29:23.979Z,3.50
2022-08-24T03:31:50.792Z,3.70
2022-08-24T03:34:19.659Z,3.60
2022-08-24T03:36:46.741Z,3.67
2022-08-24T03:39:14.871Z,3.92
2022-08-24T03:41:42.075Z,4.10
2022-08-24T03:44:08.901Z,4.18
2022-08-24T03:46:37.955Z,3.90
2022-08-24T03:49:06.740Z,3.70
2022-08-24T03:51:33.922Z,4.07
2022-08-24T03:54:01.297Z,4.13
2022-08-24T03:56:28.501Z,3.97
2022-08-24T03:58:55.787Z,3.83
2022-08-24T04:01:23.237Z,3.63
2022-08-24T04:03:53.348Z,4.07
2022-08-24T04:06:20.958Z,4.07
2022-08-24T04:08:48.793Z,4.17
2022-08-24T04:11:18.063Z,3.53
2022-08-24T04:13:45.893Z,4.30
2022-08-24T04:16:14.302Z,3.75
2022-08-24T04:18:41.617Z,4.13
2022-08-24T04:21:17.770Z,4.33
2022-08-24T04:23:46.937Z,4.00
2022-08-24T04:26:15.169Z,4.20
2022-08-24T04:28:42.390Z,4.13
2022-08-24T04:31:09.799Z,4.53
2022-08-24T04:33:37.421Z,4.30
2022-08-24T04:36:07.810Z,4.25
2022-08-24T04:38:35.023Z,4.40
2022-08-24T04:41:04.331Z,3.90
2022-08-24T04:43:31.650Z,4.35
2022-08-24T04:45:58.823Z,4.18
2022-08-24T04:48:26.004Z,3.90
2022-08-24T04:50:53.661Z,4.63
2022-08-24T04:53:20.374Z,4.90
2022-08-24T04:55:50.277Z,4.88
2022-08-24T04:58:17.980Z,4.53
2022-08-24T05:00:45.500Z,4.82
2022-08-24T05:03:12.848Z,4.53
2022-08-24T05:05:45.131Z,5.07
2022-08-24T05:08:12.975Z,4.50
2022-08-24T05:10:42.217Z,4.25
2022-08-24T05:13:09.429Z,4.23
2022-08-24T05:15:40.902Z,4.10
2022-08-24T05:18:07.588Z,4.30
2022-08-24T05:20:35.853Z,4.80
2022-08-24T05:23:04.691Z,4.37
2022-08-24T05:25:32.728Z,4.43
2022-08-24T05:28:00.686Z,4.85
2022-08-24T05:30:28.664Z,4.32
2022-08-24T05:32:55.550Z,4.55
2022-08-24T05:35:22.651Z,4.20
2022-08-24T05:37:49.774Z,4.00
2022-08-24T05:40:19.219Z,4.32
2022-08-24T05:42:46.773Z,4.97
2022-08-24T05:45:13.585Z,4.70
2022-08-24T05:47:40.344Z,4.53
2022-08-24T05:50:07.992Z,4.43
2022-08-24T05:52:35.742Z,4.50
2022-08-24T05:55:02.894Z,4.93
2022-08-24T05:57:33.088Z,4.53
2022-08-24T06:00:00.653Z,4.50
2022-08-24T06:02:27.852Z,4.50
2022-08-24T06:04:55.393Z,4.90
2022-08-24T06:07:22.158Z,5.30
2022-08-24T06:09:49.297Z,4.82
2022-08-24T06:12:16.083Z,4.18
2022-08-24T06:14:45.847Z,3.88
2022-08-24T06:17:13.049Z,4.18
2022-08-24T06:19:39.984Z,4.18
2022-08-24T06:22:07.669Z,3.63
2022-08-24T06:24:55.524Z,3.80
2022-08-24T06:27:22.860Z,3.80
2022-08-24T06:30:06.096Z,3.50
2022-08-24T06:32:32.884Z,3.97
2022-08-24T06:35:00.041Z,3.85
2022-08-24T06:37:29.382Z,3.30
2022-08-24T06:39:57.769Z,3.40
2022-08-24T06:42:25.140Z,3.90
2022-08-24T06:44:52.872Z,3.75
2022-08-24T06:47:20.122Z,3.88
2022-08-24T06:49:47.318Z,3.75
2022-08-24T06:52:14.501Z,3.15
2022-08-24T06:54:41.200Z,3.65
2022-08-24T06:57:08.307Z,3.10
2022-08-24T06:59:35.135Z,2.80
2022-08-24T07:02:02.166Z,2.70
2022-08-24T07:04:29.342Z,2.83
2022-08-24T07:06:56.527Z,3.25
2022-08-24T07:09:26.128Z,3.08
2022-08-24T07:11:53.291Z,3.53
2022-08-24T07:14:21.651Z,2.95
2022-08-24T07:16:48.803Z,2.80
2022-08-24T07:19:15.914Z,3.20
2022-08-24T07:21:43.281Z,2.72
2022-08-24T07:24:10.748Z,2.83
2022-08-24T07:26:39.025Z,2.95
2022-08-24T07:29:30.366Z,2.53
2022-08-24T07:31:56.424Z,3.45
2022-08-24T07:34:23.552Z,3.25
2022-08-24T07:36:52.280Z,2.90
2022-08-24T07:39:19.439Z,2.70
2022-08-24T07:42:10.931Z,2.78
2022-08-24T07:44:33.261Z,2.90
2022-08-24T07:47:10.393Z,2.85
2022-08-24T07:49:46.824Z,2.67
2022-08-24T07:52:14.021Z,2.58
2022-08-24T07:54:41.043Z,2.42
2022-08-24T07:57:08.306Z,3.20
2022-08-24T07:59:36.481Z,2.85
2022-08-24T08:02:03.575Z,2.60
2022-08-24T08:04:31.956Z,2.55
2022-08-24T08:07:00.788Z,2.67
2022-08-24T08:09:28.420Z,2.70
2022-08-24T08:11:55.601Z,3.20
2022-08-24T08:14:22.796Z,2.97
2022-08-24T08:16:50.015Z,2.78
2022-08-24T08:19:17.359Z,2.78
2022-08-24T08:22:06.006Z,2.55
2022-08-24T08:24:33.266Z,2.92
2022-08-24T08:27:00.772Z,2.50
2022-08-24T08:29:28.847Z,2.97
2022-08-24T08:31:55.925Z,2.55
2022-08-24T08:34:23.160Z,2.85
2022-08-24T08:36:50.718Z,4.00
2022-08-24T08:39:18.854Z,2.55
2022-08-24T08:41:48.974Z,2.80
2022-08-24T08:44:25.864Z,2.65
2022-08-24T08:46:53.005Z,2.90
2022-08-24T08:49:48.619Z,2.70
2022-08-24T08:52:53.733Z,2.58
2022-08-24T08:55:30.439Z,2.75
2022-08-24T08:58:11.298Z,2.65
2022-08-24T09:00:44.361Z,2.70
2022-08-24T09:03:50.195Z,2.63
2022-08-24T09:06:32.648Z,2.72
2022-08-24T09:09:30.722Z,2.70
2022-08-24T09:12:06.510Z,2.67
2022-08-24T09:15:02.310Z,3.20
2022-08-24T09:18:00.828Z,2.50
2022-08-24T09:20:28.935Z,2.55
2022-08-24T09:23:03.733Z,3.03
2022-08-24T09:25:43.854Z,2.80
2022-08-24T09:28:35.812Z,2.63
2022-08-24T09:31:21.433Z,3.15
2022-08-24T09:34:08.448Z,2.63
2022-08-24T09:36:53.264Z,2.50
2022-08-24T09:39:34.925Z,3.08
2022-08-24T09:42:35.159Z,2.85
2022-08-24T09:45:31.637Z,2.72
2022-08-24T09:47:58.303Z,3.33
2022-08-24T09:50:41.202Z,2.70
2022-08-24T09:53:32.158Z,2.90
2022-08-24T09:56:13.608Z,2.85
2022-08-24T09:59:02.266Z,2.70
2022-08-24T10:02:15.896Z,2.90
2022-08-24T10:04:59.013Z,2.90
2022-08-24T10:07:44.638Z,2.58
2022-08-24T10:10:16.589Z,2.80
2022-08-24T10:12:47.168Z,2.80
2022-08-24T10:15:32.331Z,2.75
2022-08-24T10:18:16.939Z,2.70
2022-08-24T10:21:08.907Z,2.80
2022-08-24T10:23:55.042Z,2.85
2022-08-24T10:26:40.613Z,2.90
2022-08-24T10:29:28.047Z,2.58
2022-08-24T10:32:12.883Z,2.88
2022-08-24T10:34:40.307Z,2.45
2022-08-24T10:37:07.378Z,2.90
2022-08-24T10:39:51.718Z,2.70
2022-08-24T10:43:06.101Z,2.67
2022-08-24T10:45:35.688Z,2.95
2022-08-24T10:48:35.996Z,2.80
2022-08-24T10:51:35.034Z,2.70
2022-08-24T10:54:02.332Z,2.67
2022-08-24T10:56:53.402Z,2.58
2022-08-24T10:59:36.839Z,2.65
2022-08-24T11:02:12.406Z,2.40
2022-08-24T11:04:40.289Z,2.45
2022-08-24T11:07:15.030Z,2.55
2022-08-24T11:09:56.207Z,2.45
2022-08-24T11:12:29.140Z,2.45
2022-08-24T11:14:59.507Z,2.33
2022-08-24T11:17:28.877Z,2.60
2022-08-24T11:19:57.272Z,2.03
2022-08-24T11:22:58.053Z,2.70
2022-08-24T11:25:32.590Z,2.00
2022-08-24T11:28:33.631Z,1.75
2022-08-24T11:31:01.199Z,2.10
2022-08-24T11:33:35.500Z,2.15
2022-08-24T11:36:02.875Z,2.10
2022-08-24T11:38:32.406Z,2.33
2022-08-24T11:41:19.263Z,2.50
2022-08-24T11:44:22.623Z,2.35
2022-08-24T11:47:03.694Z,2.60
2022-08-24T11:49:48.153Z,2.30
2022-08-24T11:52:34.274Z,2.42
2022-08-24T11:55:32.406Z,2.20
2022-08-24T11:58:38.502Z,2.28
2022-08-24T12:01:08.358Z,2.00
2022-08-24T12:03:35.459Z,2.00
2022-08-24T12:06:05.229Z,1.98
2022-08-24T12:08:41.929Z,1.73
2022-08-24T12:11:09.051Z,2.25
2022-08-24T12:13:38.883Z,2.10
2022-08-24T12:16:46.916Z,1.92
2022-08-24T12:19:22.655Z,1.83
2022-08-24T12:21:53.221Z,1.90
2022-08-24T12:24:37.998Z,2.00
2022-08-24T12:27:13.254Z,1.80
2022-08-24T12:29:44.790Z,1.80
2022-08-24T12:32:20.499Z,2.00
2022-08-24T12:35:05.531Z,2.20
2022-08-24T12:37:58.238Z,1.83
2022-08-24T12:40:42.580Z,2.17
2022-08-24T12:43:21.354Z,1.90
2022-08-24T12:45:48.178Z,1.95
2022-08-24T12:48:40.206Z,2.08
2022-08-24T12:51:40.702Z,2.15
2022-08-24T12:54:13.192Z,2.58
2022-08-24T12:57:04.129Z,1.98
2022-08-24T12:59:36.786Z,1.70
2022-08-24T13:02:06.430Z,1.95
2022-08-24T13:04:51.107Z,1.58
2022-08-24T13:07:23.690Z,1.90
2022-08-24T13:09:55.928Z,2.22
2022-08-24T13:12:44.559Z,2.00
2022-08-24T13:15:26.268Z,1.85
2022-08-24T13:18:02.680Z,2.10
2022-08-24T13:20:39.098Z,1.88
2022-08-24T13:23:05.752Z,2.10
2022-08-24T13:25:47.594Z,1.67
2022-08-24T13:28:20.606Z,2.22
2022-08-24T13:31:13.387Z,2.17
2022-08-24T13:33:46.380Z,1.98
2022-08-24T13:36:31.202Z,2.20
2022-08-24T13:39:12.602Z,2.10
2022-08-24T13:41:44.595Z,2.15
2022-08-24T13:44:26.275Z,2.20
2022-08-24T13:47:10.778Z,2.05
2022-08-24T13:50:10.996Z,2.00
2022-08-24T13:52:56.366Z,1.88
2022-08-24T13:55:53.077Z,2.05
2022-08-24T13:58:20.210Z,2.00
2022-08-24T14:01:22.872Z,2.00
2022-08-24T14:04:07.437Z,1.92
2022-08-24T14:06:49.604Z,2.03
2022-08-24T14:09:42.765Z,2.38
2022-08-24T14:12:19.118Z,2.20
2022-08-24T14:15:03.589Z,2.00
2022-08-24T14:17:49.277Z,2.03
2022-08-24T14:20:59.039Z,1.90
2022-08-24T14:23:40.415Z,2.08
2022-08-24T14:26:47.801Z,2.20
2022-08-24T14:29:19.205Z,2.40
2022-08-24T14:31:58.499Z,1.80
2022-08-24T14:34:55.708Z,1.83
2022-08-24T14:37:56.129Z,2.17
2022-08-24T14:40:53.079Z,2.03
2022-08-24T14:43:31.418Z,2.05
2022-08-24T14:46:07.619Z,1.85
2022-08-24T14:48:35.959Z,2.00
2022-08-24T14:51:26.828Z,2.00
2022-08-24T14:54:17.869Z,1.92
2022-08-24T14:56:45.020Z,1.90
2022-08-24T14:59:23.805Z,1.70
2022-08-24T15:02:16.378Z,2.00
2022-08-24T15:04:51.154Z,2.15
2022-08-24T15:07:31.944Z,2.20
2022-08-24T15:10:01.171Z,2.10
2022-08-24T15:12:48.906Z,2.00
2022-08-24T15:15:34.014Z,2.03
2022-08-24T15:18:50.707Z,2.00
2022-08-24T15:21:45.822Z,2.00
2022-08-24T15:24:43.801Z,2.00
2022-08-24T15:27:25.527Z,2.00
2022-08-24T15:29:55.922Z,2.33
2022-08-24T15:32:28.226Z,1.83
2022-08-24T15:34:58.228Z,2.10
2022-08-24T15:37:41.723Z,2.03
2022-08-24T15:40:26.869Z,1.92
2022-08-24T15:42:55.151Z,2.13
2022-08-24T15:45:22.580Z,2.20
2022-08-24T15:47:52.038Z,2.45
2022-08-24T15:50:39.644Z,2.30
2022-08-24T15:53:40.361Z,2.15
2022-08-24T15:56:35.762Z,2.10
2022-08-24T15:59:12.488Z,2.08
2022-08-24T16:01:58.639Z,2.10
2022-08-24T16:04:46.454Z,2.30
2022-08-24T16:07:21.017Z,2.40
2022-08-24T16:09:47.877Z,2.22
2022-08-24T16:12:22.938Z,2.33
2022-08-24T16:14:56.583Z,1.80
2022-08-24T16:17:35.358Z,2.10
2022-08-24T16:20:25.080Z,2.10
2022-08-24T16:23:00.568Z,2.10
2022-08-24T16:26:12.511Z,2.10
2022-08-24T16:28:39.911Z,2.40
2022-08-24T16:31:08.188Z,2.13
2022-08-24T16:33:43.159Z,2.35
2022-08-24T16:36:14.654Z,2.22
2022-08-24T16:38:47.087Z,2.40
2022-08-24T16:41:19.101Z,2.20
2022-08-24T16:43:46.456Z,2.35
2022-08-24T16:46:18.233Z,2.22
2022-08-24T16:48:45.406Z,2.28
2022-08-24T16:51:12.141Z,2.22
2022-08-24T16:53:39.278Z,2.13
2022-08-24T16:56:08.709Z,2.13
2022-08-24T16:58:36.949Z,2.50
2022-08-24T17:01:05.267Z,2.30
2022-08-24T17:03:33.863Z,2.60
2022-08-24T17:06:00.668Z,2.65
2022-08-24T17:08:28.681Z,2.20
2022-08-24T17:10:55.869Z,2.70
2022-08-24T17:16:12.431Z,2.30
2022-08-24T17:18:41.502Z,2.63
2022-08-24T17:21:08.460Z,2.50
2022-08-24T17:23:35.740Z,2.47
2022-08-24T17:26:05.292Z,2.50
2022-08-24T17:28:32.737Z,2.67
2022-08-24T17:30:59.463Z,3.20
2022-08-24T17:33:26.836Z,2.50
2022-08-24T17:35:55.919Z,2.28
2022-08-24T17:38:22.764Z,2.25
2022-08-24T17:40:50.546Z,2.25
2022-08-24T17:43:17.294Z,2.30
2022-08-24T17:45:44.250Z,2.60
2022-08-24T17:48:15.829Z,2.40
2022-08-24T17:50:43.156Z,2.50
2022-08-24T17:53:09.991Z,2.63
2022-08-24T17:55:36.994Z,2.55
2022-08-24T17:58:03.727Z,2.28
2022-08-24T18:00:30.858Z,2.50
2022-08-24T18:02:57.633Z,2.35
2022-08-24T18:05:24.407Z,2.50
2022-08-24T18:07:54.432Z,2.78
2022-08-24T18:10:30.328Z,2.55
2022-08-24T18:13:00.885Z,2.35
2022-08-24T18:15:35.349Z,2.58
2022-08-24T18:18:05.280Z,2.53
2022-08-24T18:20:37.279Z,2.60
2022-08-24T18:23:04.170Z,2.30
2022-08-24T18:25:39.269Z,2.60
2022-08-24T18:28:06.432Z,2.50
2022-08-24T18:30:33.579Z,2.50
2022-08-24T18:33:01.875Z,3.15
2022-08-24T18:35:30.720Z,2.70
2022-08-24T18:37:57.847Z,3.45
2022-08-24T18:40:27.135Z,3.55
2022-08-24T18:43:00.507Z,4.03
2022-08-24T18:45:31.289Z,6.75
2022-08-24T18:47:58.559Z,5.22
2022-08-24T18:50:28.789Z,5.43
2022-08-24T18:52:56.447Z,4.43
2022-08-24T18:55:24.989Z,4.68
2022-08-24T18:57:52.156Z,4.65
2022-08-24T19:00:19.398Z,5.00
2022-08-24T19:02:47.502Z,3.97
2022-08-24T19:05:21.425Z,4.40
2022-08-24T19:07:52.574Z,3.75
2022-08-24T19:10:25.315Z,3.70
2022-08-24T19:12:59.895Z,3.80
2022-08-24T19:15:35.673Z,4.20
2022-08-24T19:18:09.822Z,4.00
2022-08-24T19:20:40.759Z,3.70
2022-08-24T19:23:20.042Z,3.83
2022-08-24T19:25:47.793Z,3.83
2022-08-24T19:28:14.972Z,3.95
2022-08-24T19:30:42.323Z,4.07
2022-08-24T19:33:14.110Z,3.67
2022-08-24T19:35:41.864Z,3.85
2022-08-24T19:38:09.019Z,3.92
2022-08-24T19:40:36.511Z,3.97
2022-08-24T19:43:08.559Z,3.83
2022-08-24T19:45:54.538Z,4.15
2022-08-24T19:48:23.249Z,3.55
2022-08-24T19:50:50.638Z,3.50
2022-08-24T19:53:17.772Z,4.00
2022-08-24T19:55:47.539Z,3.70
2022-08-24T19:58:20.883Z,3.10
2022-08-24T20:00:57.535Z,3.35
2022-08-24T20:03:24.723Z,3.60
2022-08-24T20:05:51.958Z,3.75
2022-08-24T20:08:19.990Z,3.75
2022-08-24T20:10:47.403Z,3.33
2022-08-24T20:13:14.617Z,3.70
2022-08-24T20:15:42.399Z,3.40
2022-08-24T20:18:09.190Z,3.33
2022-08-24T20:20:36.372Z,4.03
2022-08-24T20:23:06.099Z,3.50
2022-08-24T20:25:39.119Z,3.30
2022-08-24T20:28:28.331Z,3.53
2022-08-24T20:30:55.807Z,3.42
2022-08-24T20:33:23.852Z,3.10
2022-08-24T20:35:51.063Z,3.50
2022-08-24T20:38:19.996Z,3.40
2022-08-24T20:40:47.817Z,3.15
2022-08-24T20:43:15.000Z,3.50
2022-08-24T20:45:42.237Z,3.60
2022-08-24T20:48:11.907Z,3.38
2022-08-24T20:50:39.455Z,3.80
2022-08-24T20:53:09.083Z,3.55
2022-08-24T20:55:37.658Z,3.40
2022-08-24T20:58:05.039Z,4.30
2022-08-24T21:00:32.264Z,4.72
2022-08-24T21:02:59.107Z,5.70
2022-08-24T21:05:25.868Z,3.88
2022-08-24T21:07:54.519Z,3.25
2022-08-24T21:10:26.633Z,5.78
2022-08-24T21:12:54.273Z,3.67
2022-08-24T21:15:23.190Z,3.33
2022-08-24T21:17:50.412Z,5.03
2022-08-24T21:20:17.943Z,3.30
2022-08-24T21:22:46.153Z,5.68
2022-08-24T21:25:14.686Z,3.53
2022-08-24T21:27:44.113Z,3.90
2022-08-24T21:30:14.771Z,3.40
2022-08-24T21:33:00.947Z,2.97
2022-08-24T21:35:27.836Z,3.60
2022-08-24T21:37:56.183Z,3.10
2022-08-24T21:40:23.418Z,3.47
2022-08-24T21:42:50.316Z,3.25
2022-08-24T21:45:18.663Z,2.95
2022-08-24T21:47:45.766Z,3.00
2022-08-24T21:50:13.948Z,2.97
2022-08-24T21:52:41.511Z,3.22
2022-08-24T21:55:14.221Z,3.10
2022-08-24T21:57:42.497Z,2.95
2022-08-24T22:00:15.527Z,2.60
2022-08-24T22:02:42.302Z,3.25
2022-08-24T22:05:10.049Z,3.15
2022-08-24T22:07:37.219Z,2.92
2022-08-24T22:10:05.088Z,3.17
2022-08-24T22:12:32.241Z,2.60
2022-08-24T22:14:58.969Z,3.03
2022-08-24T22:17:25.745Z,2.53
2022-08-24T22:19:52.909Z,2.75
2022-08-24T22:22:20.004Z,2.67
2022-08-24T22:24:46.705Z,3.42
2022-08-24T22:27:13.722Z,2.85
2022-08-24T22:29:40.856Z,2.88
2022-08-24T22:32:08.142Z,3.50
2022-08-24T22:34:36.488Z,3.90
2022-08-24T22:37:05.063Z,3.97
2022-08-24T22:39:32.126Z,3.10
2022-08-24T22:41:59.258Z,2.60
2022-08-24T22:44:27.619Z,2.95
2022-08-24T22:46:57.497Z,2.90
2022-08-24T22:49:37.725Z,3.00
2022-08-24T22:52:06.621Z,3.38
2022-08-24T22:54:34.647Z,2.55
2022-08-24T22:57:02.365Z,3.00
2022-08-24T22:59:35.465Z,3.33
2022-08-24T23:02:04.097Z,2.88
2022-08-24T23:04:34.570Z,3.70
2022-08-24T23:25:04.671Z,2.97
2022-08-24T23:27:32.906Z,3.20
2022-08-24T23:30:07.342Z,3.35
2022-08-24T23:32:34.478Z,3.95
2022-08-24T23:35:01.331Z,3.30
2022-08-24T23:37:28.503Z,3.42
2022-08-24T23:39:55.749Z,2.90
2022-08-24T23:42:22.595Z,2.92
2022-08-24T23:44:49.723Z,3.42
2022-08-24T23:47:17.218Z,2.90
2022-08-24T23:49:44.831Z,3.08
2022-08-24T23:52:26.855Z,3.28
2022-08-24T23:55:17.959Z,3.00
2022-08-24T23:57:45.007Z,3.33
